sensor_id;sensor_type;location;lat;lon;timestamp;P1;P2;P0
69349;PMS5003;64554;43.452;4.934;2024-01-30T00:01:43;49.00;41.00;27.00
69349;PMS5003;64554;43.452;4.934;2024-01-30T00:04:09;56.00;44.40;29.00
69349;PMS5003;64554;43.452;4.934;2024-01-30T00:06:36;48.00;41.00;26.00
69349;PMS5003;64554;43.452;4.934;2024-01-30T00:09:03;52.50;43.50;28.00
69349;PMS5003;64554;43.452;4.934;2024-01-30T00:11:29;51.25;42.50;28.00
69349;PMS5003;64554;43.452;4.934;2024-01-30T00:13:56;50.50;43.25;27.25
69349;PMS5003;64554;43.452;4.934;2024-01-30T00:16:23;47.80;40.00;26.60
69349;PMS5003;64554;43.452;4.934;2024-01-30T00:18:53;50.50;42.50;26.00
69349;PMS5003;64554;43.452;4.934;2024-01-30T00:21:20;49.60;39.40;26.40
69349;PMS5003;64554;43.452;4.934;2024-01-30T00:23:47;48.20;41.00;25.40
69349;PMS5003;64554;43.452;4.934;2024-01-30T00:26:13;50.25;41.25;26.25
69349;PMS5003;64554;43.452;4.934;2024-01-30T00:28:41;46.75;39.00;27.00
69349;PMS5003;64554;43.452;4.934;2024-01-30T00:31:08;49.67;41.00;27.00
69349;PMS5003;64554;43.452;4.934;2024-01-30T00:33:39;51.60;43.80;27.00
69349;PMS5003;64554;43.452;4.934;2024-01-30T00:36:06;50.60;42.40;27.00
69349;PMS5003;64554;43.452;4.934;2024-01-30T00:38:35;46.00;38.50;26.25
69349;PMS5003;64554;43.452;4.934;2024-01-30T00:41:02;47.60;40.80;25.80
69349;PMS5003;64554;43.452;4.934;2024-01-30T00:43:29;50.75;41.25;26.50
69349;PMS5003;64554;43.452;4.934;2024-01-30T00:45:55;47.00;40.00;28.00
69349;PMS5003;64554;43.452;4.934;2024-01-30T00:48:22;53.50;44.75;28.75
69349;PMS5003;64554;43.452;4.934;2024-01-30T00:50:48;48.50;40.50;27.50
69349;PMS5003;64554;43.452;4.934;2024-01-30T00:53:15;52.80;44.00;27.00
69349;PMS5003;64554;43.452;4.934;2024-01-30T00:55:41;52.60;44.00;27.40
69349;PMS5003;64554;43.452;4.934;2024-01-30T00:58:08;52.00;43.25;27.00
69349;PMS5003;64554;43.452;4.934;2024-01-30T01:00:34;55.60;43.80;27.60
69349;PMS5003;64554;43.452;4.934;2024-01-30T01:03:01;48.50;40.50;26.00
69349;PMS5003;64554;43.452;4.934;2024-01-30T01:05:27;48.25;41.00;27.00
69349;PMS5003;64554;43.452;4.934;2024-01-30T01:07:55;55.40;44.60;27.60
69349;PMS5003;64554;43.452;4.934;2024-01-30T01:10:22;54.00;44.75;28.00
69349;PMS5003;64554;43.452;4.934;2024-01-30T01:12:49;53.50;42.25;26.50
69349;PMS5003;64554;43.452;4.934;2024-01-30T01:15:16;51.00;41.40;27.00
69349;PMS5003;64554;43.452;4.934;2024-01-30T01:17:42;53.75;44.00;28.00
69349;PMS5003;64554;43.452;4.934;2024-01-30T01:20:09;50.75;43.00;28.00
69349;PMS5003;64554;43.452;4.934;2024-01-30T01:22:37;48.00;41.00;27.00
69349;PMS5003;64554;43.452;4.934;2024-01-30T01:25:05;53.80;44.20;28.00
69349;PMS5003;64554;43.452;4.934;2024-01-30T01:27:34;52.80;42.20;26.20
69349;PMS5003;64554;43.452;4.934;2024-01-30T01:30:09;48.33;40.00;26.00
69349;PMS5003;64554;43.452;4.934;2024-01-30T01:32:36;49.25;39.50;26.50
69349;PMS5003;64554;43.452;4.934;2024-01-30T01:35:03;51.25;43.00;27.00
69349;PMS5003;64554;43.452;4.934;2024-01-30T01:37:32;52.00;42.00;27.00
69349;PMS5003;64554;43.452;4.934;2024-01-30T01:39:58;55.25;45.00;28.00
69349;PMS5003;64554;43.452;4.934;2024-01-30T01:42:25;56.75;45.00;28.75
69349;PMS5003;64554;43.452;4.934;2024-01-30T01:44:52;61.50;48.25;30.00
69349;PMS5003;64554;43.452;4.934;2024-01-30T01:47:18;46.60;39.60;27.60
69349;PMS5003;64554;43.452;4.934;2024-01-30T01:49:45;47.00;39.40;26.40
69349;PMS5003;64554;43.452;4.934;2024-01-30T01:52:11;51.40;41.40;27.00
69349;PMS5003;64554;43.452;4.934;2024-01-30T01:54:38;49.40;39.80;23.80
69349;PMS5003;64554;43.452;4.934;2024-01-30T01:57:05;46.40;38.60;23.40
69349;PMS5003;64554;43.452;4.934;2024-01-30T01:59:31;48.00;38.75;24.00
69349;PMS5003;64554;43.452;4.934;2024-01-30T02:01:59;47.50;39.00;24.00
69349;PMS5003;64554;43.452;4.934;2024-01-30T02:04:28;45.00;36.00;23.00
69349;PMS5003;64554;43.452;4.934;2024-01-30T02:06:54;45.50;38.50;24.00
69349;PMS5003;64554;43.452;4.934;2024-01-30T02:09:21;39.60;35.00;23.60
69349;PMS5003;64554;43.452;4.934;2024-01-30T02:11:48;38.00;33.50;23.00
69349;PMS5003;64554;43.452;4.934;2024-01-30T02:14:14;45.00;38.50;22.00
69349;PMS5003;64554;43.452;4.934;2024-01-30T02:16:41;38.67;34.67;23.00
69349;PMS5003;64554;43.452;4.934;2024-01-30T02:19:07;46.00;35.20;23.00
69349;PMS5003;64554;43.452;4.934;2024-01-30T02:21:34;43.00;34.75;22.75
69349;PMS5003;64554;43.452;4.934;2024-01-30T02:24:01;39.00;33.75;22.00
69349;PMS5003;64554;43.452;4.934;2024-01-30T02:26:29;39.00;34.50;22.00
69349;PMS5003;64554;43.452;4.934;2024-01-30T02:28:55;39.00;32.40;20.00
69349;PMS5003;64554;43.452;4.934;2024-01-30T02:31:21;40.00;34.75;22.50
69349;PMS5003;64554;43.452;4.934;2024-01-30T02:33:48;36.00;32.40;20.00
69349;PMS5003;64554;43.452;4.934;2024-01-30T02:36:14;30.00;29.00;19.00
69349;PMS5003;64554;43.452;4.934;2024-01-30T02:38:41;32.80;31.00;19.60
69349;PMS5003;64554;43.452;4.934;2024-01-30T02:41:08;38.25;33.00;20.00
69349;PMS5003;64554;43.452;4.934;2024-01-30T02:43:34;37.00;30.50;21.00
69349;PMS5003;64554;43.452;4.934;2024-01-30T02:46:01;32.75;31.00;20.00
69349;PMS5003;64554;43.452;4.934;2024-01-30T02:48:28;33.00;30.00;19.00
69349;PMS5003;64554;43.452;4.934;2024-01-30T02:50:54;30.20;29.00;20.00
69349;PMS5003;64554;43.452;4.934;2024-01-30T02:53:21;38.50;33.00;19.50
69349;PMS5003;64554;43.452;4.934;2024-01-30T02:55:49;31.20;30.40;22.00
69349;PMS5003;64554;43.452;4.934;2024-01-30T02:58:15;33.00;31.50;20.50
69349;PMS5003;64554;43.452;4.934;2024-01-30T03:00:41;34.33;32.33;20.00
69349;PMS5003;64554;43.452;4.934;2024-01-30T03:03:08;36.50;32.00;20.00
69349;PMS5003;64554;43.452;4.934;2024-01-30T03:05:34;35.50;32.50;22.25
69349;PMS5003;64554;43.452;4.934;2024-01-30T03:08:01;37.00;33.00;20.50
69349;PMS5003;64554;43.452;4.934;2024-01-30T03:10:27;32.80;30.60;21.00
69349;PMS5003;64554;43.452;4.934;2024-01-30T03:12:54;37.00;33.00;20.00
69349;PMS5003;64554;43.452;4.934;2024-01-30T03:15:20;40.75;33.00;20.00
69349;PMS5003;64554;43.452;4.934;2024-01-30T03:17:47;37.00;33.00;21.00
69349;PMS5003;64554;43.452;4.934;2024-01-30T03:20:14;40.00;33.60;20.20
69349;PMS5003;64554;43.452;4.934;2024-01-30T03:22:40;38.00;33.00;20.00
69349;PMS5003;64554;43.452;4.934;2024-01-30T03:25:08;40.00;34.50;21.75
69349;PMS5003;64554;43.452;4.934;2024-01-30T03:27:34;39.25;33.50;20.25
69349;PMS5003;64554;43.452;4.934;2024-01-30T03:30:01;27.25;26.00;18.00
69349;PMS5003;64554;43.452;4.934;2024-01-30T03:32:28;36.75;33.25;21.50
69349;PMS5003;64554;43.452;4.934;2024-01-30T03:34:56;35.60;32.60;20.20
69349;PMS5003;64554;43.452;4.934;2024-01-30T03:37:22;32.60;30.60;21.00
69349;PMS5003;64554;43.452;4.934;2024-01-30T03:39:49;30.20;29.00;20.00
69349;PMS5003;64554;43.452;4.934;2024-01-30T03:42:17;37.80;32.20;22.00
69349;PMS5003;64554;43.452;4.934;2024-01-30T03:44:44;35.00;31.00;20.00
69349;PMS5003;64554;43.452;4.934;2024-01-30T03:47:10;39.75;35.00;22.25
69349;PMS5003;64554;43.452;4.934;2024-01-30T03:49:37;41.50;35.50;21.75
69349;PMS5003;64554;43.452;4.934;2024-01-30T03:52:04;35.25;33.25;22.00
69349;PMS5003;64554;43.452;4.934;2024-01-30T03:54:30;35.50;31.75;21.25
69349;PMS5003;64554;43.452;4.934;2024-01-30T03:56:57;36.00;32.00;20.00
69349;PMS5003;64554;43.452;4.934;2024-01-30T03:59:23;29.50;28.75;18.00
69349;PMS5003;64554;43.452;4.934;2024-01-30T04:01:50;38.75;33.00;20.00
69349;PMS5003;64554;43.452;4.934;2024-01-30T04:04:18;37.67;34.00;20.33
69349;PMS5003;64554;43.452;4.934;2024-01-30T04:06:44;43.40;36.00;22.00
69349;PMS5003;64554;43.452;4.934;2024-01-30T04:09:14;31.75;30.00;19.25
69349;PMS5003;64554;43.452;4.934;2024-01-30T04:11:41;39.00;35.00;21.50
69349;PMS5003;64554;43.452;4.934;2024-01-30T04:14:08;34.50;31.50;20.00
69349;PMS5003;64554;43.452;4.934;2024-01-30T04:16:34;36.00;30.40;20.40
69349;PMS5003;64554;43.452;4.934;2024-01-30T04:19:01;30.50;29.50;19.50
69349;PMS5003;64554;43.452;4.934;2024-01-30T04:21:27;29.00;26.60;18.60
69349;PMS5003;64554;43.452;4.934;2024-01-30T04:23:55;35.00;32.00;20.00
69349;PMS5003;64554;43.452;4.934;2024-01-30T04:26:22;33.00;30.75;18.00
69349;PMS5003;64554;43.452;4.934;2024-01-30T04:28:48;33.00;31.25;19.50
69349;PMS5003;64554;43.452;4.934;2024-01-30T04:31:15;30.00;27.00;19.00
69349;PMS5003;64554;43.452;4.934;2024-01-30T04:33:44;35.00;30.25;19.00
69349;PMS5003;64554;43.452;4.934;2024-01-30T04:36:10;25.00;24.00;18.00
69349;PMS5003;64554;43.452;4.934;2024-01-30T04:38:40;32.00;30.60;18.00
69349;PMS5003;64554;43.452;4.934;2024-01-30T04:41:07;30.75;30.00;18.00
69349;PMS5003;64554;43.452;4.934;2024-01-30T04:43:33;37.00;34.00;20.00
69349;PMS5003;64554;43.452;4.934;2024-01-30T04:46:00;32.00;29.00;20.00
69349;PMS5003;64554;43.452;4.934;2024-01-30T04:48:26;35.80;31.20;19.20
69349;PMS5003;64554;43.452;4.934;2024-01-30T04:50:53;27.40;26.20;18.80
69349;PMS5003;64554;43.452;4.934;2024-01-30T04:53:20;32.80;30.40;17.00
69349;PMS5003;64554;43.452;4.934;2024-01-30T04:55:46;33.00;28.20;17.00
69349;PMS5003;64554;43.452;4.934;2024-01-30T04:58:13;31.50;29.00;16.75
69349;PMS5003;64554;43.452;4.934;2024-01-30T05:00:40;28.50;27.25;18.00
69349;PMS5003;64554;43.452;4.934;2024-01-30T05:03:07;26.80;24.20;19.00
69349;PMS5003;64554;43.452;4.934;2024-01-30T05:05:33;35.75;31.00;19.00
69349;PMS5003;64554;43.452;4.934;2024-01-30T05:08:00;27.00;25.00;18.00
69349;PMS5003;64554;43.452;4.934;2024-01-30T05:10:26;29.80;28.00;16.80
69349;PMS5003;64554;43.452;4.934;2024-01-30T05:12:55;27.60;26.40;18.60
69349;PMS5003;64554;43.452;4.934;2024-01-30T05:15:22;35.50;30.50;19.25
69349;PMS5003;64554;43.452;4.934;2024-01-30T05:17:48;28.60;26.60;17.80
69349;PMS5003;64554;43.452;4.934;2024-01-30T05:20:15;26.60;26.20;20.00
69349;PMS5003;64554;43.452;4.934;2024-01-30T05:22:41;26.25;26.25;16.00
69349;PMS5003;64554;43.452;4.934;2024-01-30T05:25:14;27.50;26.00;18.50
69349;PMS5003;64554;43.452;4.934;2024-01-30T05:27:41;32.50;31.25;18.50
69349;PMS5003;64554;43.452;4.934;2024-01-30T05:30:07;29.25;26.75;18.50
69349;PMS5003;64554;43.452;4.934;2024-01-30T05:32:34;37.00;32.00;21.40
69349;PMS5003;64554;43.452;4.934;2024-01-30T05:35:01;41.00;36.00;21.00
69349;PMS5003;64554;43.452;4.934;2024-01-30T05:37:27;40.25;33.25;20.50
69349;PMS5003;64554;43.452;4.934;2024-01-30T05:39:54;39.25;32.00;19.50
69349;PMS5003;64554;43.452;4.934;2024-01-30T05:42:20;31.50;30.50;20.00
69349;PMS5003;64554;43.452;4.934;2024-01-30T05:44:47;32.20;29.60;21.00
69349;PMS5003;64554;43.452;4.934;2024-01-30T05:47:13;38.50;31.25;20.00
69349;PMS5003;64554;43.452;4.934;2024-01-30T05:49:40;37.00;31.00;18.25
69349;PMS5003;64554;43.452;4.934;2024-01-30T05:52:06;35.00;33.00;20.00
69349;PMS5003;64554;43.452;4.934;2024-01-30T05:54:33;36.25;33.25;20.00
69349;PMS5003;64554;43.452;4.934;2024-01-30T05:57:00;36.50;32.00;20.00
69349;PMS5003;64554;43.452;4.934;2024-01-30T05:59:26;36.50;32.00;19.75
69349;PMS5003;64554;43.452;4.934;2024-01-30T06:01:53;36.00;32.00;20.00
69349;PMS5003;64554;43.452;4.934;2024-01-30T06:04:20;42.00;36.75;22.75
69349;PMS5003;64554;43.452;4.934;2024-01-30T06:06:47;43.00;32.00;20.00
69349;PMS5003;64554;43.452;4.934;2024-01-30T06:09:13;29.60;29.60;20.00
69349;PMS5003;64554;43.452;4.934;2024-01-30T06:11:40;38.00;32.00;20.00
69349;PMS5003;64554;43.452;4.934;2024-01-30T06:14:06;40.00;35.00;23.25
69349;PMS5003;64554;43.452;4.934;2024-01-30T06:16:33;39.25;34.50;20.50
69349;PMS5003;64554;43.452;4.934;2024-01-30T06:19:00;36.00;29.50;19.00
69349;PMS5003;64554;43.452;4.934;2024-01-30T06:21:26;45.00;35.00;20.00
69349;PMS5003;64554;43.452;4.934;2024-01-30T06:23:53;31.60;30.00;20.00
69349;PMS5003;64554;43.452;4.934;2024-01-30T06:26:19;30.00;29.33;19.67
69349;PMS5003;64554;43.452;4.934;2024-01-30T06:28:45;30.00;30.00;18.00
69349;PMS5003;64554;43.452;4.934;2024-01-30T06:31:12;35.00;32.00;22.00
69349;PMS5003;64554;43.452;4.934;2024-01-30T06:33:38;43.60;35.60;22.20
69349;PMS5003;64554;43.452;4.934;2024-01-30T06:36:05;33.00;30.00;18.50
69349;PMS5003;64554;43.452;4.934;2024-01-30T06:38:31;35.50;31.50;20.00
69349;PMS5003;64554;43.452;4.934;2024-01-30T06:40:58;33.00;30.50;20.00
69349;PMS5003;64554;43.452;4.934;2024-01-30T06:43:25;32.60;30.60;20.00
69349;PMS5003;64554;43.452;4.934;2024-01-30T06:45:51;34.00;31.25;20.25
69349;PMS5003;64554;43.452;4.934;2024-01-30T06:48:18;35.80;30.40;21.00
69349;PMS5003;64554;43.452;4.934;2024-01-30T06:50:45;33.20;31.80;19.00
69349;PMS5003;64554;43.452;4.934;2024-01-30T06:53:11;29.40;28.80;18.80
69349;PMS5003;64554;43.452;4.934;2024-01-30T06:55:38;32.75;30.75;18.00
69349;PMS5003;64554;43.452;4.934;2024-01-30T06:58:04;29.60;28.20;18.00
69349;PMS5003;64554;43.452;4.934;2024-01-30T07:00:31;26.25;24.25;17.25
69349;PMS5003;64554;43.452;4.934;2024-01-30T07:02:59;28.75;27.00;19.00
69349;PMS5003;64554;43.452;4.934;2024-01-30T07:05:28;29.00;25.00;18.00
69349;PMS5003;64554;43.452;4.934;2024-01-30T07:07:54;36.20;30.00;19.40
69349;PMS5003;64554;43.452;4.934;2024-01-30T07:10:21;35.00;32.00;20.67
69349;PMS5003;64554;43.452;4.934;2024-01-30T07:12:48;30.50;30.00;19.00
69349;PMS5003;64554;43.452;4.934;2024-01-30T07:15:14;30.00;27.00;18.00
69349;PMS5003;64554;43.452;4.934;2024-01-30T07:17:43;27.25;25.75;17.00
69349;PMS5003;64554;43.452;4.934;2024-01-30T07:20:10;30.00;27.50;17.75
69349;PMS5003;64554;43.452;4.934;2024-01-30T07:22:43;32.60;30.00;18.60
69349;PMS5003;64554;43.452;4.934;2024-01-30T07:25:10;27.80;27.40;17.00
69349;PMS5003;64554;43.452;4.934;2024-01-30T07:27:36;30.60;28.40;19.20
69349;PMS5003;64554;43.452;4.934;2024-01-30T07:30:03;30.50;29.00;18.00
69349;PMS5003;64554;43.452;4.934;2024-01-30T07:32:29;32.60;29.00;18.20
69349;PMS5003;64554;43.452;4.934;2024-01-30T07:34:56;34.25;32.00;20.00
69349;PMS5003;64554;43.452;4.934;2024-01-30T07:37:33;29.00;28.00;19.00
69349;PMS5003;64554;43.452;4.934;2024-01-30T07:40:02;30.00;27.00;17.00
69349;PMS5003;64554;43.452;4.934;2024-01-30T07:42:29;20.40;19.60;14.00
69349;PMS5003;64554;43.452;4.934;2024-01-30T07:44:55;38.75;33.50;18.75
69349;PMS5003;64554;43.452;4.934;2024-01-30T07:47:22;29.60;29.60;20.00
69349;PMS5003;64554;43.452;4.934;2024-01-30T07:49:48;27.00;27.00;20.00
69349;PMS5003;64554;43.452;4.934;2024-01-30T07:52:15;21.00;21.00;14.40
69349;PMS5003;64554;43.452;4.934;2024-01-30T07:54:42;25.00;22.00;13.75
69349;PMS5003;64554;43.452;4.934;2024-01-30T07:57:09;28.60;27.60;20.00
69349;PMS5003;64554;43.452;4.934;2024-01-30T07:59:35;32.25;29.50;18.00
69349;PMS5003;64554;43.452;4.934;2024-01-30T08:02:01;28.00;25.50;18.50
69349;PMS5003;64554;43.452;4.934;2024-01-30T08:04:28;29.67;29.00;18.00
69349;PMS5003;64554;43.452;4.934;2024-01-30T08:06:55;35.00;31.50;21.50
69349;PMS5003;64554;43.452;4.934;2024-01-30T08:09:21;25.00;23.40;16.00
69349;PMS5003;64554;43.452;4.934;2024-01-30T08:11:48;32.25;30.25;18.25
69349;PMS5003;64554;43.452;4.934;2024-01-30T08:14:14;32.75;30.75;18.75
69349;PMS5003;64554;43.452;4.934;2024-01-30T08:16:41;28.75;28.75;18.00
69349;PMS5003;64554;43.452;4.934;2024-01-30T08:19:07;34.00;31.60;18.00
69349;PMS5003;64554;43.452;4.934;2024-01-30T08:21:34;31.00;29.00;19.00
69349;PMS5003;64554;43.452;4.934;2024-01-30T08:24:05;30.20;27.80;18.40
69349;PMS5003;64554;43.452;4.934;2024-01-30T08:26:32;24.50;24.50;14.50
69349;PMS5003;64554;43.452;4.934;2024-01-30T08:28:59;24.00;22.75;14.00
69349;PMS5003;64554;43.452;4.934;2024-01-30T08:31:26;21.00;21.00;15.25
69349;PMS5003;64554;43.452;4.934;2024-01-30T08:33:53;27.00;25.80;16.00
69349;PMS5003;64554;43.452;4.934;2024-01-30T08:36:20;24.75;22.75;16.25
69349;PMS5003;64554;43.452;4.934;2024-01-30T08:38:46;30.00;24.00;15.00
69349;PMS5003;64554;43.452;4.934;2024-01-30T08:41:13;39.00;32.50;20.50
69349;PMS5003;64554;43.452;4.934;2024-01-30T08:43:39;31.60;30.40;19.40
69349;PMS5003;64554;43.452;4.934;2024-01-30T08:46:06;35.60;31.60;19.00
69349;PMS5003;64554;43.452;4.934;2024-01-30T08:48:32;34.60;29.40;19.40
69349;PMS5003;64554;43.452;4.934;2024-01-30T08:50:59;36.40;32.20;20.00
69349;PMS5003;64554;43.452;4.934;2024-01-30T08:53:25;30.75;30.00;17.25
69349;PMS5003;64554;43.452;4.934;2024-01-30T08:55:52;32.50;29.25;19.50
69349;PMS5003;64554;43.452;4.934;2024-01-30T08:58:18;25.50;22.75;16.00
69349;PMS5003;64554;43.452;4.934;2024-01-30T09:00:45;21.20;21.00;15.80
69349;PMS5003;64554;43.452;4.934;2024-01-30T09:03:12;28.20;25.40;14.00
69349;PMS5003;64554;43.452;4.934;2024-01-30T09:05:38;20.00;20.00;13.00
69349;PMS5003;64554;43.452;4.934;2024-01-30T09:08:05;25.20;23.20;13.40
69349;PMS5003;64554;43.452;4.934;2024-01-30T09:10:31;27.20;25.60;14.00
69349;PMS5003;64554;43.452;4.934;2024-01-30T09:12:58;24.50;23.25;15.75
69349;PMS5003;64554;43.452;4.934;2024-01-30T09:15:24;22.50;21.50;15.25
69349;PMS5003;64554;43.452;4.934;2024-01-30T09:17:52;24.00;21.40;15.00
69349;PMS5003;64554;43.452;4.934;2024-01-30T09:20:18;24.40;22.40;14.00
69349;PMS5003;64554;43.452;4.934;2024-01-30T09:22:48;24.00;24.00;16.00
69349;PMS5003;64554;43.452;4.934;2024-01-30T09:25:15;25.00;20.00;14.00
69349;PMS5003;64554;43.452;4.934;2024-01-30T09:27:42;22.75;20.25;14.00
69349;PMS5003;64554;43.452;4.934;2024-01-30T09:30:08;24.80;20.80;15.00
69349;PMS5003;64554;43.452;4.934;2024-01-30T09:32:35;22.20;19.40;14.40
69349;PMS5003;64554;43.452;4.934;2024-01-30T09:35:01;33.25;30.50;17.00
69349;PMS5003;64554;43.452;4.934;2024-01-30T09:37:28;27.60;27.60;16.40
69349;PMS5003;64554;43.452;4.934;2024-01-30T09:39:54;25.00;25.00;16.00
69349;PMS5003;64554;43.452;4.934;2024-01-30T09:42:26;32.50;30.00;19.00
69349;PMS5003;64554;43.452;4.934;2024-01-30T09:44:54;21.75;20.50;14.50
69349;PMS5003;64554;43.452;4.934;2024-01-30T09:47:21;29.00;26.50;16.25
69349;PMS5003;64554;43.452;4.934;2024-01-30T09:49:48;31.00;29.80;17.60
69349;PMS5003;64554;43.452;4.934;2024-01-30T09:52:16;28.00;27.00;17.40
69349;PMS5003;64554;43.452;4.934;2024-01-30T09:54:43;37.50;33.25;19.50
69349;PMS5003;64554;43.452;4.934;2024-01-30T09:57:10;30.50;28.25;16.75
69349;PMS5003;64554;43.452;4.934;2024-01-30T09:59:37;23.00;20.40;15.60
69349;PMS5003;64554;43.452;4.934;2024-01-30T10:02:03;21.40;20.80;16.00
69349;PMS5003;64554;43.452;4.934;2024-01-30T10:04:30;23.00;23.00;14.50
69349;PMS5003;64554;43.452;4.934;2024-01-30T10:06:57;25.50;24.50;15.00
69349;PMS5003;64554;43.452;4.934;2024-01-30T10:09:26;19.80;19.80;14.00
69349;PMS5003;64554;43.452;4.934;2024-01-30T10:11:52;22.00;20.20;15.80
69349;PMS5003;64554;43.452;4.934;2024-01-30T10:14:19;23.00;22.00;14.20
69349;PMS5003;64554;43.452;4.934;2024-01-30T10:16:46;22.00;21.40;15.00
69349;PMS5003;64554;43.452;4.934;2024-01-30T10:19:13;27.75;26.25;15.00
69349;PMS5003;64554;43.452;4.934;2024-01-30T10:21:40;22.00;22.00;13.40
69349;PMS5003;64554;43.452;4.934;2024-01-30T10:24:06;20.00;20.00;14.00
69349;PMS5003;64554;43.452;4.934;2024-01-30T10:26:33;19.20;18.80;12.80
69349;PMS5003;64554;43.452;4.934;2024-01-30T10:29:00;19.00;18.00;12.60
69349;PMS5003;64554;43.452;4.934;2024-01-30T10:31:27;17.60;16.40;13.00
69349;PMS5003;64554;43.452;4.934;2024-01-30T10:33:53;19.80;18.00;11.00
69349;PMS5003;64554;43.452;4.934;2024-01-30T10:36:39;22.40;21.00;14.00
69349;PMS5003;64554;43.452;4.934;2024-01-30T10:39:10;18.50;18.00;12.50
69349;PMS5003;64554;43.452;4.934;2024-01-30T10:41:43;16.60;14.60;10.60
69349;PMS5003;64554;43.452;4.934;2024-01-30T10:44:10;20.60;19.00;14.00
69349;PMS5003;64554;43.452;4.934;2024-01-30T10:46:38;17.00;15.00;12.00
69349;PMS5003;64554;43.452;4.934;2024-01-30T10:49:04;24.40;24.40;13.80
69349;PMS5003;64554;43.452;4.934;2024-01-30T10:51:32;22.00;18.80;12.00
69349;PMS5003;64554;43.452;4.934;2024-01-30T10:54:00;19.40;19.40;13.00
69349;PMS5003;64554;43.452;4.934;2024-01-30T10:56:27;21.20;20.00;12.40
69349;PMS5003;64554;43.452;4.934;2024-01-30T10:58:54;19.00;19.00;14.50
69349;PMS5003;64554;43.452;4.934;2024-01-30T11:01:22;17.20;16.80;11.40
69349;PMS5003;64554;43.452;4.934;2024-01-30T11:03:52;20.40;20.40;12.00
69349;PMS5003;64554;43.452;4.934;2024-01-30T11:06:25;14.67;14.67;8.33
69349;PMS5003;64554;43.452;4.934;2024-01-30T11:09:01;15.00;15.00;11.00
69349;PMS5003;64554;43.452;4.934;2024-01-30T11:11:49;17.50;16.00;12.00
69349;PMS5003;64554;43.452;4.934;2024-01-30T11:14:15;19.40;16.40;12.00
69349;PMS5003;64554;43.452;4.934;2024-01-30T11:16:42;15.60;15.60;10.40
69349;PMS5003;64554;43.452;4.934;2024-01-30T11:19:11;14.80;14.80;9.00
69349;PMS5003;64554;43.452;4.934;2024-01-30T11:21:41;15.00;15.00;11.00
69349;PMS5003;64554;43.452;4.934;2024-01-30T11:24:08;16.00;15.00;11.00
69349;PMS5003;64554;43.452;4.934;2024-01-30T11:26:35;16.00;16.00;12.00
69349;PMS5003;64554;43.452;4.934;2024-01-30T11:29:07;22.40;21.40;15.40
69349;PMS5003;64554;43.452;4.934;2024-01-30T11:31:35;12.50;12.50;9.00
69349;PMS5003;64554;43.452;4.934;2024-01-30T11:34:02;11.00;11.00;8.25
69349;PMS5003;64554;43.452;4.934;2024-01-30T11:36:29;13.00;13.00;8.80
69349;PMS5003;64554;43.452;4.934;2024-01-30T11:38:58;14.75;11.00;7.75
69349;PMS5003;64554;43.452;4.934;2024-01-30T11:41:24;10.00;10.00;8.00
69349;PMS5003;64554;43.452;4.934;2024-01-30T11:43:52;11.80;11.40;9.00
69349;PMS5003;64554;43.452;4.934;2024-01-30T11:46:19;13.00;12.00;8.00
69349;PMS5003;64554;43.452;4.934;2024-01-30T11:48:46;14.00;14.00;10.50
69349;PMS5003;64554;43.452;4.934;2024-01-30T11:51:13;11.00;11.00;8.00
69349;PMS5003;64554;43.452;4.934;2024-01-30T11:53:39;13.50;13.00;8.50
69349;PMS5003;64554;43.452;4.934;2024-01-30T11:56:07;11.00;11.00;8.00
69349;PMS5003;64554;43.452;4.934;2024-01-30T11:58:34;14.00;14.00;9.00
69349;PMS5003;64554;43.452;4.934;2024-01-30T12:01:01;14.60;13.60;8.60
69349;PMS5003;64554;43.452;4.934;2024-01-30T12:03:28;10.60;10.60;7.60
69349;PMS5003;64554;43.452;4.934;2024-01-30T12:05:58;12.40;12.40;8.00
69349;PMS5003;64554;43.452;4.934;2024-01-30T12:08:26;12.40;12.40;8.40
69349;PMS5003;64554;43.452;4.934;2024-01-30T12:10:57;13.50;13.50;9.50
69349;PMS5003;64554;43.452;4.934;2024-01-30T12:13:28;14.80;14.80;9.00
69349;PMS5003;64554;43.452;4.934;2024-01-30T12:15:59;10.50;10.50;6.75
69349;PMS5003;64554;43.452;4.934;2024-01-30T12:18:26;12.00;12.00;8.00
69349;PMS5003;64554;43.452;4.934;2024-01-30T12:20:58;12.33;12.33;9.33
69349;PMS5003;64554;43.452;4.934;2024-01-30T12:23:27;18.00;15.50;8.00
69349;PMS5003;64554;43.452;4.934;2024-01-30T12:25:54;15.67;15.67;9.00
69349;PMS5003;64554;43.452;4.934;2024-01-30T12:28:21;14.00;14.00;9.60
69349;PMS5003;64554;43.452;4.934;2024-01-30T12:30:47;13.20;12.00;8.60
69349;PMS5003;64554;43.452;4.934;2024-01-30T12:33:17;18.00;18.00;9.00
69349;PMS5003;64554;43.452;4.934;2024-01-30T12:35:47;13.00;13.00;8.40
69349;PMS5003;64554;43.452;4.934;2024-01-30T12:38:27;13.25;13.25;9.00
69349;PMS5003;64554;43.452;4.934;2024-01-30T12:40:55;19.00;19.00;9.00
69349;PMS5003;64554;43.452;4.934;2024-01-30T12:43:23;13.00;13.00;9.00
69349;PMS5003;64554;43.452;4.934;2024-01-30T12:46:03;15.50;14.00;10.00
69349;PMS5003;64554;43.452;4.934;2024-01-30T12:48:29;12.40;12.40;7.60
69349;PMS5003;64554;43.452;4.934;2024-01-30T12:50:56;16.50;15.50;10.00
69349;PMS5003;64554;43.452;4.934;2024-01-30T12:53:38;13.00;13.00;9.00
69349;PMS5003;64554;43.452;4.934;2024-01-30T12:56:07;14.50;13.50;8.00
69349;PMS5003;64554;43.452;4.934;2024-01-30T12:58:33;16.60;13.60;9.00
69349;PMS5003;64554;43.452;4.934;2024-01-30T13:01:00;12.00;12.00;9.00
69349;PMS5003;64554;43.452;4.934;2024-01-30T13:03:27;16.25;16.25;11.00
69349;PMS5003;64554;43.452;4.934;2024-01-30T13:05:53;15.50;15.50;10.50
69349;PMS5003;64554;43.452;4.934;2024-01-30T13:08:20;15.20;13.80;9.80
69349;PMS5003;64554;43.452;4.934;2024-01-30T13:10:47;20.25;19.00;10.50
69349;PMS5003;64554;43.452;4.934;2024-01-30T13:13:15;12.60;12.60;9.60
69349;PMS5003;64554;43.452;4.934;2024-01-30T13:15:46;17.25;17.25;9.50
69349;PMS5003;64554;43.452;4.934;2024-01-30T13:18:13;17.25;17.25;11.00
69349;PMS5003;64554;43.452;4.934;2024-01-30T13:20:40;17.00;15.75;10.50
69349;PMS5003;64554;43.452;4.934;2024-01-30T13:23:06;12.75;12.75;7.50
69349;PMS5003;64554;43.452;4.934;2024-01-30T13:25:32;11.20;11.20;8.80
69349;PMS5003;64554;43.452;4.934;2024-01-30T13:27:59;15.80;15.80;10.00
69349;PMS5003;64554;43.452;4.934;2024-01-30T13:30:26;14.50;14.00;9.00
69349;PMS5003;64554;43.452;4.934;2024-01-30T13:32:52;15.00;14.00;9.00
69349;PMS5003;64554;43.452;4.934;2024-01-30T13:35:20;13.40;13.40;9.00
69349;PMS5003;64554;43.452;4.934;2024-01-30T13:37:47;18.25;18.25;9.50
69349;PMS5003;64554;43.452;4.934;2024-01-30T13:40:14;16.60;16.60;9.00
69349;PMS5003;64554;43.452;4.934;2024-01-30T13:42:43;20.00;16.00;9.25
69349;PMS5003;64554;43.452;4.934;2024-01-30T13:45:09;17.00;15.00;10.00
69349;PMS5003;64554;43.452;4.934;2024-01-30T13:47:36;14.00;14.00;9.00